Time;durP1;ratioP1;P1;durP2;ratioP2;P2;SDS_P1;SDS_P2;PMS_P1;PMS_P2;Temp;Humidity;BMP_temperature;BMP_pressure;BME280_temperature;BME280_humidity;BME280_pressure;Samples;Min_cycle;Max_cycle;Signal;HPM_P1;HPM_P2
2022/02/28 00:00:06;;;;;;;13.02;6.05;;;;;;;7.39;43.63;99668.63;5072290;28;20486;-51
2022/02/28 00:02:32;;;;;;;15.90;6.50;;;;;;;7.75;44.21;99672.88;5072486;28;20012;-52
2022/02/28 00:04:57;;;;;;;13.00;5.80;;;;;;;7.96;43.96;99670.66;5072452;28;20032;-52
2022/02/28 00:07:23;;;;;;;14.43;6.03;;;;;;;8.07;42.42;99676.56;5054400;28;20394;-52
2022/02/28 00:09:49;;;;;;;12.02;5.78;;;;;;;8.03;41.38;99678.69;5054270;28;20133;-52
2022/02/28 00:12:14;;;;;;;12.27;5.20;;;;;;;8.14;41.55;99681.00;5054276;28;20035;-52
2022/02/28 00:14:40;;;;;;;15.60;7.05;;;;;;;8.18;41.41;99682.31;5072294;28;20107;-52
2022/02/28 00:17:06;;;;;;;12.43;5.45;;;;;;;8.20;41.56;99679.53;5054225;28;20028;-52
2022/02/28 00:19:32;;;;;;;13.88;7.07;;;;;;;8.17;41.35;99691.16;5072190;28;20100;-52
2022/02/28 00:21:58;;;;;;;10.15;5.43;;;;;;;8.19;41.81;99686.56;5072190;28;20111;-51
2022/02/28 00:24:24;;;;;;;12.20;5.43;;;;;;;8.15;41.56;99689.69;5054140;28;20020;-52
2022/02/28 00:26:49;;;;;;;7.85;4.60;;;;;;;8.22;40.88;99695.06;5072051;28;20036;-51
2022/02/28 00:29:15;;;;;;;8.90;5.35;;;;;;;8.00;40.61;99692.88;5071989;28;20401;-51
2022/02/28 00:31:41;;;;;;;8.90;5.03;;;;;;;7.70;41.33;99696.84;5054145;28;20064;-52
2022/02/28 00:34:07;;;;;;;10.10;4.15;;;;;;;7.61;42.02;99697.81;5072501;28;20021;-52
2022/02/28 00:36:32;;;;;;;10.38;4.55;;;;;;;7.62;41.42;99698.63;5074093;28;20036;-52
2022/02/28 00:38:58;;;;;;;10.35;5.07;;;;;;;7.49;42.01;99692.03;5092157;28;20024;-52
2022/02/28 00:41:24;;;;;;;10.90;4.90;;;;;;;7.44;42.16;99691.66;5092060;28;20024;-51
2022/02/28 00:43:50;;;;;;;8.82;4.50;;;;;;;7.71;42.92;99695.06;5092310;28;20050;-52
2022/02/28 00:46:16;;;;;;;7.15;4.22;;;;;;;8.11;40.79;99688.34;5073825;28;20062;-52
2022/02/28 00:48:41;;;;;;;11.50;7.35;;;;;;;8.34;40.64;99699.03;5091984;28;20516;-52
2022/02/28 00:51:07;;;;;;;17.65;7.72;;;;;;;8.51;40.14;99703.34;5073810;28;20040;-52
2022/02/28 00:53:34;;;;;;;13.02;8.65;;;;;;;8.62;38.86;99704.00;5073862;28;20024;-52
2022/02/28 00:56:00;;;;;;;18.88;6.35;;;;;;;8.49;38.87;99707.06;5091954;28;20065;-52
2022/02/28 00:58:26;;;;;;;11.20;5.28;;;;;;;8.18;39.85;99708.47;5091942;28;20106;-52
2022/02/28 01:00:52;;;;;;;10.65;6.05;;;;;;;8.02;39.72;99707.59;5073737;28;20035;-51
2022/02/28 01:03:18;;;;;;;10.50;4.97;;;;;;;7.80;39.75;99707.19;5091871;28;20031;-52
2022/02/28 01:05:44;;;;;;;6.68;4.43;;;;;;;7.48;40.76;99705.22;5091856;28;20123;-51
2022/02/28 01:08:10;;;;;;;7.43;4.55;;;;;;;7.41;40.44;99712.88;5091733;28;20503;-52
2022/02/28 01:10:36;;;;;;;10.07;4.90;;;;;;;7.33;40.75;99711.03;5091795;28;20024;-52
2022/02/28 01:13:04;;;;;;;12.43;5.25;;;;;;;7.26;41.38;99712.59;5093410;28;20105;-52
2022/02/28 01:15:30;;;;;;;10.27;5.70;;;;;;;7.20;41.68;99708.84;5095922;28;20034;-51
2022/02/28 01:17:56;;;;;;;13.15;6.55;;;;;;;7.20;41.46;99715.84;5095908;28;20023;-51
2022/02/28 01:20:22;;;;;;;11.02;5.95;;;;;;;7.28;41.87;99718.50;5077677;28;20020;-52
2022/02/28 01:22:47;;;;;;;13.38;6.82;;;;;;;7.26;41.86;99712.59;5095804;28;20099;-51
2022/02/28 01:25:13;;;;;;;8.57;4.78;;;;;;;7.33;41.63;99715.44;5077522;28;20074;-52
2022/02/28 01:27:39;;;;;;;14.35;5.35;;;;;;;7.33;41.93;99713.63;5077569;28;20052;-51
2022/02/28 01:30:06;;;;;;;11.02;5.10;;;;;;;7.22;41.57;99718.28;5077297;28;20097;-51
2022/02/28 01:32:32;;;;;;;10.18;4.88;;;;;;;7.17;42.11;99719.56;5095600;28;20548;-52
2022/02/28 01:34:57;;;;;;;9.65;5.63;;;;;;;7.11;41.67;99719.38;5095383;28;20120;-51
2022/02/28 01:37:23;;;;;;;10.48;6.13;;;;;;;7.09;42.53;99719.53;5095419;28;20020;-51
2022/02/28 01:39:49;;;;;;;9.35;4.65;;;;;;;7.26;42.62;99715.22;5095502;28;20024;-52
2022/02/28 01:42:15;;;;;;;8.90;4.47;;;;;;;7.26;43.02;99711.78;5077166;28;20055;-52
2022/02/28 01:44:41;;;;;;;10.30;4.93;;;;;;;7.22;42.06;99713.88;5077151;28;20585;-51
2022/02/28 01:47:08;;;;;;;11.52;5.07;;;;;;;7.18;42.87;99717.78;5095330;28;20118;-52
2022/02/28 01:49:34;;;;;;;9.65;4.30;;;;;;;7.25;43.15;99710.97;5076977;28;20157;-52
2022/02/28 01:52:00;;;;;;;6.90;4.40;;;;;;;7.32;42.79;99701.53;5095238;28;20506;-52
2022/02/28 01:54:26;;;;;;;6.60;4.07;;;;;;;7.44;42.65;99706.53;5095186;28;20043;-52
2022/02/28 01:56:52;;;;;;;9.13;4.18;;;;;;;7.50;43.57;99704.09;5076951;28;20382;-52
2022/02/28 01:59:18;;;;;;;12.07;4.40;;;;;;;7.57;42.88;99699.91;5095101;28;20028;-52
2022/02/28 02:01:43;;;;;;;11.30;5.82;;;;;;;7.56;42.65;99700.06;5076842;28;20025;-52
2022/02/28 02:04:09;;;;;;;11.57;4.40;;;;;;;7.51;42.24;99702.31;5076788;28;20070;-51
2022/02/28 02:06:35;;;;;;;10.60;5.35;;;;;;;7.14;42.50;99706.84;5076679;28;20559;-51
2022/02/28 02:09:03;;;;;;;10.35;4.60;;;;;;;6.69;42.95;99701.75;5094843;28;20508;-52
2022/02/28 02:11:29;;;;;;;12.00;4.95;;;;;;;6.47;43.08;99709.03;5076691;28;20081;-51
2022/02/28 02:13:55;;;;;;;16.50;6.90;;;;;;;6.40;44.07;99708.81;5076674;28;20043;-52
2022/02/28 02:16:21;;;;;;;10.77;4.65;;;;;;;6.29;44.07;99714.25;5076580;28;20367;-52
2022/02/28 02:18:47;;;;;;;8.55;5.28;;;;;;;6.20;44.10;99712.53;5094789;28;20016;-52
2022/02/28 02:21:12;;;;;;;9.45;4.97;;;;;;;6.10;44.46;99714.38;5094692;28;20588;-51
2022/02/28 02:23:39;;;;;;;7.18;4.97;;;;;;;6.00;44.66;99711.81;5076318;28;20110;-51
2022/02/28 02:26:05;;;;;;;12.80;5.82;;;;;;;6.12;45.34;99705.44;5094546;28;20032;-51
2022/02/28 02:28:31;;;;;;;13.38;5.35;;;;;;;6.28;45.77;99703.94;5076319;28;20081;-51
2022/02/28 02:30:58;;;;;;;9.20;4.70;;;;;;;6.51;45.98;99701.75;5094451;28;20032;-52
2022/02/28 02:33:25;;;;;;;12.93;5.00;;;;;;;6.70;46.32;99700.75;5094464;28;20016;-51
2022/02/28 02:35:53;;;;;;;17.25;5.78;;;;;;;6.99;46.60;99703.94;5094252;28;20509;-51
2022/02/28 02:38:19;;;;;;;9.70;5.03;;;;;;;7.04;45.56;99703.47;5076159;28;20497;-52
2022/02/28 02:40:45;;;;;;;8.20;4.70;;;;;;;7.08;44.78;99704.00;5094297;28;20024;-52
2022/02/28 02:43:11;;;;;;;13.80;6.00;;;;;;;6.95;44.77;99707.81;5076018;28;20035;-52
2022/02/28 02:45:37;;;;;;;11.63;5.50;;;;;;;6.88;45.23;99712.03;5094265;28;20020;-52
2022/02/28 02:48:14;;;;;;;9.85;4.82;;;;;;;6.72;44.78;99711.88;5094130;28;20025;-52
2022/02/28 02:50:40;;;;;;;8.77;4.80;;;;;;;6.55;44.81;99710.91;5094146;28;20103;-51
2022/02/28 02:53:06;;;;;;;7.50;4.78;;;;;;;6.47;45.16;99716.88;5075864;28;20032;-51
2022/02/28 02:55:32;;;;;;;12.82;5.47;;;;;;;6.26;45.34;99714.56;5075840;28;20023;-52
2022/02/28 02:57:58;;;;;;;10.27;5.28;;;;;;;6.14;46.09;99721.75;5093975;28;20056;-51
2022/02/28 03:00:23;;;;;;;10.00;4.57;;;;;;;6.10;46.16;99712.59;5093942;28;20505;-52
2022/02/28 03:02:49;;;;;;;10.80;4.82;;;;;;;5.96;45.58;99720.91;5093909;28;20020;-51
2022/02/28 03:05:15;;;;;;;14.20;5.00;;;;;;;5.70;46.65;99724.13;5093841;28;20016;-51
2022/02/28 03:07:40;;;;;;;8.93;4.55;;;;;;;5.63;46.96;99717.84;5093836;28;20032;-51
2022/02/28 03:10:07;;;;;;;9.38;4.25;;;;;;;5.59;47.40;99721.69;5075465;28;20020;-51
2022/02/28 03:12:32;;;;;;;8.02;4.97;;;;;;;5.54;47.15;99723.91;5075462;28;20035;-51
2022/02/28 03:14:58;;;;;;;9.32;4.78;;;;;;;5.40;47.93;99719.97;5075522;28;20016;-52
2022/02/28 03:17:24;;;;;;;13.73;5.10;;;;;;;5.35;48.16;99723.00;5093576;28;20028;-51
2022/02/28 03:19:49;;;;;;;7.65;4.53;;;;;;;5.40;48.14;99723.38;5093558;28;20028;-51
2022/02/28 03:22:15;;;;;;;9.32;5.18;;;;;;;5.39;48.25;99719.16;5093540;28;20111;-52
2022/02/28 03:24:41;;;;;;;9.95;4.90;;;;;;;5.35;48.16;99725.63;5093492;28;20016;-51
2022/02/28 03:27:06;;;;;;;8.05;4.95;;;;;;;5.26;48.47;99718.63;5093385;28;20444;-52
2022/02/28 03:29:32;;;;;;;8.93;4.82;;;;;;;5.27;48.87;99730.69;5075136;28;20021;-51
2022/02/28 03:31:58;;;;;;;13.77;4.85;;;;;;;5.29;48.43;99717.53;5093326;28;20439;-51
2022/02/28 03:34:24;;;;;;;13.52;5.15;;;;;;;5.35;49.13;99724.78;5093091;28;20055;-52
2022/02/28 03:36:49;;;;;;;20.90;4.60;;;;;;;5.62;48.62;99718.00;5074455;28;20071;-51
2022/02/28 03:39:15;;;;;;;8.88;4.75;;;;;;;5.89;48.10;99723.22;5074958;28;20417;-51
2022/02/28 03:41:41;;;;;;;12.50;4.93;;;;;;;6.05;48.33;99725.22;5074942;28;20020;-52
2022/02/28 03:44:07;;;;;;;14.80;4.85;;;;;;;6.27;47.94;99728.41;5074799;28;20030;-52
2022/02/28 03:46:33;;;;;;;10.98;5.05;;;;;;;6.54;46.75;99722.31;5074811;28;20020;-51
2022/02/28 03:48:59;;;;;;;9.57;5.28;;;;;;;6.68;46.63;99720.97;5092925;28;20024;-51
2022/02/28 03:51:24;;;;;;;14.40;5.20;;;;;;;6.72;46.12;99717.09;5092954;28;20077;-51
2022/02/28 03:53:50;;;;;;;15.63;5.40;;;;;;;6.87;45.93;99727.84;5092929;28;20024;-52
2022/02/28 03:56:16;;;;;;;8.18;5.07;;;;;;;6.83;45.53;99716.06;5092917;28;20012;-51
2022/02/28 03:58:42;;;;;;;13.40;5.43;;;;;;;6.77;45.33;99709.66;5074648;28;20028;-52
2022/02/28 04:01:08;;;;;;;10.20;4.55;;;;;;;6.58;46.02;99711.44;5092755;28;20111;-52
2022/02/28 04:03:33;;;;;;;10.35;4.95;;;;;;;6.57;45.72;99711.59;5092759;28;20110;-51
2022/02/28 04:05:59;;;;;;;11.30;5.13;;;;;;;6.30;46.37;99717.66;5074469;28;20540;-51
2022/02/28 04:08:25;;;;;;;8.00;4.50;;;;;;;6.01;46.49;99718.66;5074368;28;20114;-51
2022/02/28 04:10:51;;;;;;;11.05;5.88;;;;;;;5.73;47.05;99726.44;5092879;28;20485;-51
2022/02/28 04:13:16;;;;;;;8.73;5.55;;;;;;;5.66;47.49;99724.56;5074570;28;20080;-52
2022/02/28 04:15:42;;;;;;;10.68;4.75;;;;;;;5.66;47.34;99719.34;5074285;28;20024;-52
2022/02/28 04:18:09;;;;;;;13.20;4.60;;;;;;;5.53;47.45;99715.28;5074530;28;20040;-52
2022/02/28 04:20:35;;;;;;;7.65;4.40;;;;;;;5.45;47.55;99727.34;5074286;28;20386;-51
2022/02/28 04:23:00;;;;;;;25.17;20.67;;;;;;;5.36;48.05;99722.03;5074252;28;20085;-52
2022/02/28 04:25:26;;;;;;;12.88;5.50;;;;;;;5.35;47.88;99727.38;5092343;28;20020;-51
2022/02/28 04:27:52;;;;;;;8.68;4.22;;;;;;;5.31;47.64;99720.81;5092306;28;20035;-51
2022/02/28 04:30:19;;;;;;;10.70;4.20;;;;;;;5.30;48.44;99725.19;5092252;28;20030;-51
2022/02/28 04:32:44;;;;;;;9.02;4.07;;;;;;;5.34;47.81;99726.56;5092285;28;20016;-52
2022/02/28 04:35:10;;;;;;;9.35;4.88;;;;;;;5.51;48.17;99732.81;5091947;28;20039;-51
2022/02/28 04:37:36;;;;;;;10.65;4.60;;;;;;;5.75;47.83;99734.09;5074093;28;20081;-51
2022/02/28 04:40:03;;;;;;;7.43;4.07;;;;;;;5.87;47.26;99732.13;5074026;28;20092;-51
2022/02/28 04:42:29;;;;;;;13.07;4.68;;;;;;;5.89;47.02;99732.81;5092210;28;20021;-51
2022/02/28 04:44:55;;;;;;;14.77;4.78;;;;;;;5.83;46.65;99729.00;5073999;28;20059;-51
2022/02/28 04:47:20;;;;;;;11.38;5.82;;;;;;;5.74;46.62;99728.09;5091180;28;20489;-52
2022/02/28 04:49:46;;;;;;;17.88;4.45;;;;;;;5.84;47.47;99735.84;5091974;28;20064;-52
2022/02/28 04:52:12;;;;;;;13.75;4.00;;;;;;;5.87;46.98;99738.16;5092032;28;20028;-52
2022/02/28 04:54:38;;;;;;;18.45;9.30;;;;;;;5.73;46.75;99731.63;5091969;28;20074;-52
2022/02/28 04:57:03;;;;;;;21.63;13.65;;;;;;;5.71;46.75;99735.34;5091912;28;20024;-52
2022/02/28 04:59:29;;;;;;;13.20;6.43;;;;;;;5.60;46.74;99731.97;5091992;28;20032;-52
2022/02/28 05:01:55;;;;;;;15.90;6.32;;;;;;;5.47;47.22;99731.44;5073671;28;20116;-51
2022/02/28 05:04:21;;;;;;;13.13;5.07;;;;;;;5.49;47.81;99733.91;5073714;28;20073;-52
2022/02/28 05:06:46;;;;;;;8.95;4.00;;;;;;;5.59;47.29;99737.31;5091859;28;20020;-51
2022/02/28 05:09:12;;;;;;;9.82;4.28;;;;;;;5.65;47.30;99735.94;5091758;28;20090;-52
2022/02/28 05:11:38;;;;;;;12.48;4.38;;;;;;;5.66;47.53;99735.78;5091765;28;20097;-51
2022/02/28 05:14:03;;;;;;;14.20;4.30;;;;;;;5.69;46.92;99734.69;5073653;28;20073;-52
2022/02/28 05:16:29;;;;;;;11.00;4.03;;;;;;;5.64;46.84;99735.13;5091746;28;20606;-52
2022/02/28 05:18:55;;;;;;;10.45;4.10;;;;;;;5.59;46.78;99747.72;5091700;28;20020;-52
2022/02/28 05:21:20;;;;;;;17.23;5.13;;;;;;;5.67;46.75;99749.63;5073518;28;20115;-51
2022/02/28 05:23:46;;;;;;;22.15;6.30;;;;;;;5.91;47.57;99742.13;5091702;28;20582;-52
2022/02/28 05:26:12;;;;;;;8.13;4.10;;;;;;;6.24;46.99;99734.72;5091685;28;20047;-52
2022/02/28 05:28:38;;;;;;;6.68;3.92;;;;;;;6.29;46.00;99742.09;5073441;28;20397;-51
2022/02/28 05:31:04;;;;;;;12.30;4.00;;;;;;;6.27;46.38;99744.84;5073405;28;20032;-51
2022/02/28 05:33:29;;;;;;;8.98;4.05;;;;;;;6.32;46.14;99744.44;5083293;28;20065;-51
2022/02/28 05:35:55;;;;;;;11.52;4.38;;;;;;;6.36;45.46;99745.78;5073191;28;20051;-52
2022/02/28 05:38:21;;;;;;;11.95;3.78;;;;;;;6.31;45.71;99740.97;5073367;28;20067;-51
2022/02/28 05:40:47;;;;;;;8.38;3.85;;;;;;;6.40;45.96;99742.72;5091555;28;20020;-52
2022/02/28 05:43:13;;;;;;;9.52;4.00;;;;;;;6.36;45.28;99746.59;5091509;28;20020;-51
2022/02/28 05:45:38;;;;;;;14.07;4.90;;;;;;;6.15;45.59;99751.22;5073287;28;20066;-52
2022/02/28 05:48:05;;;;;;;6.95;3.90;;;;;;;6.02;45.72;99748.97;5073294;28;20393;-51
2022/02/28 05:50:31;;;;;;;10.30;4.72;;;;;;;5.86;45.67;99746.16;5091374;28;20020;-52
2022/02/28 05:52:57;;;;;;;7.70;4.10;;;;;;;5.76;46.41;99747.00;5073152;28;20027;-51
2022/02/28 05:55:23;;;;;;;10.80;3.95;;;;;;;5.78;46.15;99755.47;5073180;28;20056;-52
2022/02/28 05:57:49;;;;;;;10.95;3.95;;;;;;;5.76;46.25;99740.97;5091245;28;20040;-51
2022/02/28 06:00:15;;;;;;;9.68;3.95;;;;;;;5.78;46.62;99742.47;5076495;28;20028;-51
2022/02/28 06:02:41;;;;;;;13.52;4.80;;;;;;;6.00;46.74;99737.88;5076907;28;20566;-51
2022/02/28 06:05:07;;;;;;;9.10;4.30;;;;;;;6.25;46.14;99743.38;5076761;28;20039;-52
2022/02/28 06:07:33;;;;;;;21.23;6.35;;;;;;;6.39;45.60;99745.47;5076742;28;20409;-52
2022/02/28 06:09:59;;;;;;;8.65;4.32;;;;;;;6.49;45.32;99751.44;5076645;28;20031;-51
2022/02/28 06:12:25;;;;;;;9.98;4.70;;;;;;;6.46;44.60;99748.31;5076652;28;20047;-52
2022/02/28 06:14:50;;;;;;;7.70;3.80;;;;;;;6.23;45.52;99747.91;5094850;28;20020;-52
2022/02/28 06:17:16;;;;;;;10.25;3.97;;;;;;;6.13;45.38;99755.78;5076587;28;20492;-52
2022/02/28 06:19:42;;;;;;;16.63;4.70;;;;;;;6.11;45.99;99750.69;5094769;28;20059;-52
2022/02/28 06:22:08;;;;;;;18.52;6.05;;;;;;;6.23;46.36;99751.31;5094715;28;20441;-51
2022/02/28 06:24:34;;;;;;;15.98;4.82;;;;;;;6.67;45.15;99753.25;5094641;28;20020;-51
2022/02/28 06:26:59;;;;;;;12.77;4.28;;;;;;;6.98;43.65;99754.53;5094616;28;20111;-52
2022/02/28 06:29:25;;;;;;;8.02;4.53;;;;;;;7.09;45.08;99765.69;5076396;28;20070;-52
2022/02/28 06:31:51;;;;;;;10.73;3.88;;;;;;;7.36;44.15;99762.13;5094552;28;20024;-52
2022/02/28 06:34:16;;;;;;;10.35;4.25;;;;;;;7.63;42.86;99763.78;5094294;28;20032;-52
2022/02/28 06:36:42;;;;;;;7.45;4.50;;;;;;;7.98;42.58;99756.75;5076303;28;20036;-52
2022/02/28 06:39:09;;;;;;;10.85;4.40;;;;;;;8.43;41.82;99763.50;5076269;28;20024;-52
2022/02/28 06:41:35;;;;;;;15.88;4.50;;;;;;;8.40;40.74;99766.38;5094333;28;20032;-51
2022/02/28 06:44:01;;;;;;;11.23;4.25;;;;;;;8.46;40.65;99759.72;5076111;28;20391;-52
2022/02/28 06:46:27;;;;;;;13.93;5.55;;;;;;;8.64;41.00;99767.47;5094263;28;20020;-52
2022/02/28 06:48:53;;;;;;;10.10;4.43;;;;;;;8.90;40.53;99759.47;5094185;28;20574;-52
2022/02/28 06:51:18;;;;;;;11.75;4.22;;;;;;;9.20;39.73;99753.56;5076036;28;20398;-52
2022/02/28 06:53:44;;;;;;;6.68;3.47;;;;;;;9.36;38.59;99757.16;5094103;28;20023;-52
2022/02/28 06:56:10;;;;;;;11.23;4.03;;;;;;;9.24;38.85;99751.44;5094021;28;20035;-52
2022/02/28 06:58:36;;;;;;;7.68;3.13;;;;;;;9.20;39.05;99747.53;5075878;28;20025;-52
2022/02/28 07:01:02;;;;;;;8.25;4.15;;;;;;;9.14;38.89;99754.22;5094260;28;20024;-52
2022/02/28 07:03:27;;;;;;;11.13;4.28;;;;;;;8.96;38.77;99756.22;5093923;28;20405;-52
2022/02/28 07:05:58;;;;;;;11.13;5.28;;;;;;;8.87;39.53;99757.16;5075737;28;20046;-52
2022/02/28 07:08:24;;;;;;;17.30;5.07;;;;;;;8.96;39.76;99759.63;5075585;28;20028;-52
2022/02/28 07:10:51;;;;;;;5.78;3.47;;;;;;;9.23;38.90;99765.50;5074524;28;20036;-51
2022/02/28 07:13:17;;;;;;;9.25;4.18;;;;;;;9.93;37.80;99753.59;5093748;28;20024;-52
2022/02/28 07:15:45;;;;;;;11.07;4.80;;;;;;;10.88;36.52;99768.34;5075406;28;20026;-53
2022/02/28 07:18:11;;;;;;;11.93;4.30;;;;;;;11.71;35.11;99756.09;5093709;28;20024;-53
2022/02/28 07:20:38;;;;;;;11.88;5.57;;;;;;;12.02;33.64;99755.13;5093549;28;20486;-53
2022/02/28 07:23:05;;;;;;;14.77;4.53;;;;;;;12.17;33.86;99759.38;5075343;28;20111;-53
2022/02/28 07:25:33;;;;;;;8.57;3.83;;;;;;;12.56;32.80;99752.94;5075251;28;20417;-52
2022/02/28 07:27:59;;;;;;;9.48;4.07;;;;;;;12.53;32.81;99753.28;5075226;28;20500;-53
2022/02/28 07:30:25;;;;;;;12.75;5.40;;;;;;;12.47;32.85;99753.22;5093321;28;20109;-53
2022/02/28 07:32:51;;;;;;;14.50;5.88;;;;;;;12.48;32.98;99752.22;5075137;28;20054;-52
2022/02/28 07:35:17;;;;;;;12.50;4.65;;;;;;;12.26;33.05;99754.00;5074837;28;20513;-53
2022/02/28 07:37:43;;;;;;;12.02;4.03;;;;;;;11.75;33.67;99757.38;5075072;28;20026;-51
2022/02/28 07:40:09;;;;;;;9.35;4.28;;;;;;;11.25;35.08;99759.69;5093178;28;20016;-53
2022/02/28 07:42:36;;;;;;;13.05;5.55;;;;;;;10.88;35.55;99758.66;5074920;28;20118;-52
2022/02/28 07:45:04;;;;;;;7.70;4.55;;;;;;;10.74;35.88;99762.03;5074871;28;20026;-52
2022/02/28 07:47:30;;;;;;;9.20;4.97;;;;;;;10.64;36.10;99767.50;5093038;28;20092;-52
2022/02/28 07:49:55;;;;;;;11.18;4.32;;;;;;;10.58;36.65;99769.06;5092949;28;20024;-52
2022/02/28 07:52:21;;;;;;;32.08;21.70;;;;;;;10.78;36.14;99773.81;5092989;28;20024;-53
2022/02/28 07:54:47;;;;;;;15.88;9.30;;;;;;;10.97;35.94;99757.59;5092965;28;20099;-52
2022/02/28 07:57:12;;;;;;;22.92;11.73;;;;;;;11.29;35.59;99757.50;5074650;28;20505;-53
2022/02/28 07:59:38;;;;;;;11.80;10.05;;;;;;;11.71;34.52;99756.09;5092883;28;20020;-52
2022/02/28 08:02:04;;;;;;;9.30;5.25;;;;;;;12.15;33.68;99756.13;5074624;28;20111;-52
2022/02/28 08:04:30;;;;;;;9.82;5.78;;;;;;;12.62;33.34;99758.47;5092730;28;20073;-53
2022/02/28 08:06:55;;;;;;;13.35;4.57;;;;;;;13.19;32.29;99757.53;5092706;28;20456;-53
2022/02/28 08:09:24;;;;;;;11.00;5.53;;;;;;;13.76;31.24;99761.00;5092633;28;20167;-52
2022/02/28 08:11:50;;;;;;;7.47;4.07;;;;;;;14.38;30.33;99753.97;5092609;28;20028;-53
2022/02/28 08:14:16;;;;;;;15.35;4.72;;;;;;;15.04;29.31;99755.94;5092603;28;20046;-53
2022/02/28 08:16:42;;;;;;;14.45;4.78;;;;;;;15.33;29.89;99752.09;5092502;28;20438;-53
2022/02/28 08:19:08;;;;;;;8.40;4.32;;;;;;;15.29;28.75;99747.38;5074292;28;20106;-52
2022/02/28 08:21:34;;;;;;;13.70;4.50;;;;;;;15.40;28.70;99754.72;5092298;28;20145;-53
2022/02/28 08:23:59;;;;;;;9.65;4.40;;;;;;;15.87;28.03;99750.16;5092451;28;20373;-53
2022/02/28 08:26:25;;;;;;;9.15;4.78;;;;;;;15.91;27.74;99750.56;5092390;28;20038;-53
2022/02/28 08:28:51;;;;;;;14.27;4.60;;;;;;;16.40;27.79;99758.91;5092316;28;20027;-52
2022/02/28 08:31:16;;;;;;;13.63;4.13;;;;;;;17.05;26.64;99750.78;5074082;28;20039;-53
2022/02/28 08:33:42;;;;;;;14.05;5.50;;;;;;;17.56;25.78;99760.31;5073993;28;20028;-50
2022/02/28 08:36:08;;;;;;;15.13;4.82;;;;;;;17.86;25.14;99755.13;5092063;28;20036;-51
2022/02/28 08:38:33;;;;;;;19.17;6.72;;;;;;;17.99;25.19;99751.53;5092234;28;20379;-51
2022/02/28 08:40:59;;;;;;;10.90;4.15;;;;;;;18.21;25.13;99743.06;5092153;28;20125;-50
2022/02/28 08:43:26;;;;;;;11.68;3.63;;;;;;;18.44;24.35;99745.03;5073922;28;20039;-51
2022/02/28 08:45:53;;;;;;;9.32;2.97;;;;;;;18.72;23.73;99745.22;5092106;28;20044;-51
2022/02/28 08:48:18;;;;;;;10.43;4.53;;;;;;;18.54;24.05;99747.94;5073782;28;20032;-50
2022/02/28 08:50:45;;;;;;;7.25;3.70;;;;;;;18.61;24.08;99748.63;5091976;28;20023;-51
2022/02/28 08:53:11;;;;;;;17.33;4.35;;;;;;;18.54;24.33;99755.91;5092003;28;20017;-50
2022/02/28 08:55:36;;;;;;;9.65;4.15;;;;;;;18.59;23.67;99758.69;5091892;28;20081;-50
2022/02/28 08:58:03;;;;;;;10.25;3.58;;;;;;;18.90;23.32;99756.84;5091942;28;20024;-51
2022/02/28 09:00:28;;;;;;;10.90;4.90;;;;;;;19.26;23.30;99755.84;5091893;28;20020;-51
2022/02/28 09:02:55;;;;;;;6.95;3.95;;;;;;;19.49;22.74;99754.22;5073801;28;20028;-50
2022/02/28 09:05:21;;;;;;;11.07;4.93;;;;;;;19.69;22.68;99746.69;5073711;28;20073;-51
2022/02/28 09:07:47;;;;;;;16.58;5.40;;;;;;;20.05;22.19;99741.31;5091886;28;20020;-51
2022/02/28 09:10:13;;;;;;;13.02;4.10;;;;;;;20.17;21.75;99742.09;5091754;28;20446;-52
2022/02/28 09:12:39;;;;;;;12.65;4.00;;;;;;;20.26;21.27;99742.50;5073624;28;20024;-51
2022/02/28 09:15:07;;;;;;;8.02;3.63;;;;;;;19.95;21.82;99739.25;5091810;28;20044;-51
2022/02/28 09:17:33;;;;;;;8.27;3.70;;;;;;;20.21;21.55;99731.75;5073577;28;20043;-51
2022/02/28 09:20:00;;;;;;;12.68;4.07;;;;;;;20.48;21.17;99731.97;5073575;28;20032;-51
2022/02/28 09:22:26;;;;;;;7.70;3.83;;;;;;;20.82;21.06;99740.88;5091693;28;20027;-51
2022/02/28 09:24:52;;;;;;;12.82;3.92;;;;;;;20.92;20.85;99733.03;5091714;28;20501;-50
2022/02/28 09:27:18;;;;;;;11.65;4.35;;;;;;;21.11;20.67;99735.47;5091841;28;20035;-51
2022/02/28 09:29:44;;;;;;;11.85;4.35;;;;;;;21.00;20.61;99742.50;5091620;28;20388;-51
2022/02/28 09:32:10;;;;;;;13.43;5.22;;;;;;;21.23;20.63;99736.19;5073478;28;20472;-51
2022/02/28 09:34:35;;;;;;;12.32;5.53;;;;;;;21.89;20.24;99743.50;5094016;28;20121;-51
2022/02/28 09:37:02;;;;;;;8.05;3.53;;;;;;;22.35;19.42;99741.34;5095693;28;20024;-51
2022/02/28 09:39:28;;;;;;;10.30;4.72;;;;;;;22.42;19.51;99743.84;5077436;28;20034;-51
2022/02/28 09:41:54;;;;;;;12.65;5.18;;;;;;;22.74;18.84;99743.88;5095552;28;20479;-51
2022/02/28 09:44:21;;;;;;;14.55;4.47;;;;;;;22.84;19.09;99743.97;5095445;28;20553;-51
2022/02/28 09:46:48;;;;;;;15.07;5.93;;;;;;;23.01;18.97;99733.13;5077258;28;20026;-52
2022/02/28 09:49:14;;;;;;;12.18;5.57;;;;;;;23.19;18.40;99734.63;5095329;28;20056;-50
2022/02/28 09:51:41;;;;;;;10.75;5.38;;;;;;;22.77;18.61;99737.22;5095353;28;20012;-51
2022/02/28 09:54:07;;;;;;;8.63;5.28;;;;;;;23.21;19.06;99732.47;5077043;28;20082;-50
2022/02/28 09:56:33;;;;;;;13.00;4.30;;;;;;;23.61;18.15;99725.75;5076955;28;20557;-51
2022/02/28 09:59:00;;;;;;;11.75;6.38;;;;;;;23.48;18.68;99736.94;5095241;28;20024;-51
2022/02/28 10:01:26;;;;;;;14.15;4.18;;;;;;;23.80;18.18;99722.63;5095128;28;20020;-51
2022/02/28 10:03:52;;;;;;;10.55;4.40;;;;;;;23.46;18.02;99728.34;5095111;28;20028;-51
2022/02/28 10:06:18;;;;;;;8.65;4.00;;;;;;;23.60;18.08;99726.00;5076801;28;20024;-51
2022/02/28 10:08:46;;;;;;;11.13;4.30;;;;;;;23.55;17.92;99718.75;5094940;28;20024;-51
2022/02/28 10:11:34;;;;;;;9.40;4.82;;;;;;;23.38;18.49;99716.25;5094931;28;20497;-51
2022/02/28 10:14:05;;;;;;;12.65;4.88;;;;;;;23.24;18.56;99723.13;5094987;28;20040;-51
2022/02/28 10:16:37;;;;;;;10.35;4.35;;;;;;;23.53;18.19;99712.84;5094792;28;20012;-51
2022/02/28 10:19:08;;;;;;;8.70;4.82;;;;;;;23.33;18.50;99719.69;5094872;28;20046;-51
2022/02/28 10:21:55;;;;;;;10.40;5.05;;;;;;;23.19;18.82;99718.53;5094742;28;20016;-52
2022/02/28 10:24:31;;;;;;;13.18;6.22;;;;;;;23.03;19.20;99719.50;5094806;28;20028;-51
2022/02/28 10:26:58;;;;;;;14.25;5.18;;;;;;;23.28;19.78;99721.53;5094710;28;20048;-51
2022/02/28 10:29:27;;;;;;;9.30;4.50;;;;;;;23.10;18.86;99715.56;5076332;28;20024;-51
2022/02/28 10:32:05;;;;;;;7.20;3.97;;;;;;;22.74;18.86;99709.91;5094558;28;20106;-51
2022/02/28 10:34:34;;;;;;;10.23;4.30;;;;;;;22.52;19.36;99709.97;5072419;28;20411;-52
2022/02/28 10:37:00;;;;;;;5.85;3.20;;;;;;;22.83;19.09;99710.22;5074304;28;20086;-51
2022/02/28 10:39:37;;;;;;;11.18;3.92;;;;;;;22.83;19.24;99699.50;5074212;28;20032;-51
2022/02/28 10:42:18;;;;;;;12.60;4.50;;;;;;;23.03;19.23;99714.94;5074201;28;20021;-51
2022/02/28 10:44:44;;;;;;;23.38;9.13;;;;;;;22.67;19.19;99709.28;5074083;28;20035;-51
2022/02/28 10:47:12;;;;;;;16.02;6.10;;;;;;;22.74;19.27;99709.91;5056014;28;20032;-51
2022/02/28 10:49:40;;;;;;;17.67;6.88;;;;;;;22.82;19.02;99705.94;5073880;28;20025;-52
2022/02/28 10:52:07;;;;;;;11.88;5.00;;;;;;;22.89;18.83;99706.53;5055928;28;20116;-51
2022/02/28 10:54:39;;;;;;;8.40;3.92;;;;;;;23.13;18.63;99703.50;5073944;28;20048;-51
2022/02/28 10:57:21;;;;;;;10.88;3.97;;;;;;;23.21;18.74;99711.06;5073847;28;20493;-52
2022/02/28 10:59:55;;;;;;;10.10;3.72;;;;;;;23.48;18.82;99699.41;5073899;28;20166;-50
2022/02/28 11:02:27;;;;;;;6.15;3.38;;;;;;;23.50;18.50;99697.28;5073734;28;20051;-51
2022/02/28 11:05:15;;;;;;;6.35;3.50;;;;;;;23.41;18.94;99701.53;5073748;28;20052;-51
2022/02/28 11:07:54;;;;;;;15.15;4.07;;;;;;;23.55;18.70;99696.50;5055726;28;20104;-51
2022/02/28 11:10:21;;;;;;;7.25;2.75;;;;;;;23.59;18.58;99700.28;5073549;28;20466;-51
2022/02/28 11:12:48;;;;;;;6.50;3.22;;;;;;;23.89;18.36;99694.25;5073595;28;20104;-51
2022/02/28 11:15:20;;;;;;;8.63;3.50;;;;;;;23.82;18.50;99683.78;5073505;28;20072;-51
2022/02/28 11:17:47;;;;;;;6.55;2.38;;;;;;;23.86;18.46;99681.38;5073605;28;20494;-52
2022/02/28 11:20:16;;;;;;;5.40;2.30;;;;;;;23.58;18.98;99679.91;5073340;28;20055;-51
2022/02/28 11:22:44;;;;;;;4.47;2.97;;;;;;;23.83;18.60;99679.22;5073369;28;20025;-52
2022/02/28 11:25:12;;;;;;;8.73;2.53;;;;;;;23.77;18.29;99677.56;5073229;28;20048;-51
2022/02/28 11:27:40;;;;;;;6.47;3.00;;;;;;;23.70;18.24;99667.91;5073280;28;20020;-52
2022/02/28 11:30:09;;;;;;;11.25;3.58;;;;;;;24.19;18.87;99666.72;5073104;28;20027;-52